Time;durP1;ratioP1;P1;durP2;ratioP2;P2;SDS_P1;SDS_P2;PMS_P1;PMS_P2;Temp;Humidity;BMP_temperature;BMP_pressure;BME280_temperature;BME280_humidity;BME280_pressure;Samples;Min_cycle;Max_cycle;Signal;HPM_P1;HPM_P2
2024/04/13 00:00:06;;;;;;;14.38;9.32;;;15.30;86.00;;;;;;5433417;26;20039;-83
2024/04/13 00:02:32;;;;;;;16.98;9.10;;;15.30;86.10;;;;;;5429366;26;20006;-83
2024/04/13 00:04:58;;;;;;;19.23;11.68;;;15.30;86.10;;;;;;5431287;26;20002;-82
2024/04/13 00:07:24;;;;;;;19.33;12.70;;;15.30;86.20;;;;;;5426190;26;20565;-84
2024/04/13 00:09:50;;;;;;;19.10;13.15;;;15.30;86.30;;;;;;5433363;26;20708;-83
2024/04/13 00:12:16;;;;;;;21.60;13.63;;;15.30;86.30;;;;;;5406952;26;19995;-83
2024/04/13 00:14:41;;;;;;;24.45;15.13;;;15.30;86.40;;;;;;5437609;26;20100;-83
2024/04/13 00:17:07;;;;;;;20.60;13.13;;;15.20;86.50;;;;;;5437601;26;20043;-83
2024/04/13 00:19:35;;;;;;;22.58;13.80;;;15.20;86.60;;;;;;5419472;26;19994;-82
2024/04/13 00:22:01;;;;;;;20.70;13.85;;;15.20;86.70;;;;;;5386936;26;19996;-83
2024/04/13 00:24:27;;;;;;;18.77;12.63;;;15.10;86.80;;;;;;5435935;26;20010;-81
2024/04/13 00:26:53;;;;;;;19.23;12.57;;;15.10;86.90;;;;;;5443440;26;20010;-85
2024/04/13 00:29:18;;;;;;;16.48;11.68;;;15.10;86.90;;;;;;5428825;26;19999;-85
2024/04/13 00:31:44;;;;;;;18.58;11.35;;;15.10;87.00;;;;;;5413855;26;19991;-84
2024/04/13 00:34:10;;;;;;;18.00;12.20;;;15.10;87.00;;;;;;5427805;26;20325;-85
2024/04/13 00:36:35;;;;;;;17.42;11.48;;;15.00;87.10;;;;;;5436248;26;20762;-84
2024/04/13 00:39:04;;;;;;;16.58;11.68;;;15.00;87.10;;;;;;5426327;26;20842;-84
2024/04/13 00:41:30;;;;;;;20.70;12.95;;;15.00;87.30;;;;;;5407901;26;20328;-83
2024/04/13 00:43:59;;;;;;;16.55;11.98;;;15.00;87.30;;;;;;5412063;26;19994;-84
2024/04/13 00:46:26;;;;;;;16.52;10.73;;;15.10;87.20;;;;;;5413287;26;19995;-84
2024/04/13 00:48:53;;;;;;;12.85;9.02;;;14.90;87.20;;;;;;5419977;26;20920;-84
2024/04/13 00:51:23;;;;;;;16.15;8.50;;;14.90;87.40;;;;;;5420340;26;19995;-82
2024/04/13 00:53:49;;;;;;;13.02;9.13;;;14.80;87.50;;;;;;5449757;26;20048;-85
2024/04/13 00:56:15;;;;;;;14.13;9.07;;;14.70;87.60;;;;;;5448586;26;20455;-84
2024/04/13 00:58:42;;;;;;;12.48;8.18;;;14.70;87.70;;;;;;5435508;26;20039;-83
2024/04/13 01:01:10;;;;;;;14.63;8.90;;;14.70;87.80;;;;;;5435405;26;20050;-83
2024/04/13 01:03:38;;;;;;;11.68;8.63;;;14.60;87.90;;;;;;5425799;26;20088;-84
2024/04/13 01:06:06;;;;;;;13.55;8.70;;;14.60;87.90;;;;;;5404173;26;20064;-83
2024/04/13 01:08:34;;;;;;;14.30;8.77;;;14.60;87.90;;;;;;5416000;26;20292;-84
2024/04/13 01:11:00;;;;;;;15.15;8.73;;;14.60;88.00;;;;;;5420768;26;20323;-84
2024/04/13 01:13:26;;;;;;;10.82;7.65;;;14.50;88.00;;;;;;5435990;26;20038;-85
2024/04/13 01:15:52;;;;;;;13.18;7.75;;;14.40;88.30;;;;;;5432754;26;19991;-84
2024/04/13 01:18:18;;;;;;;10.63;7.57;;;14.40;88.40;;;;;;5393981;26;20400;-84
2024/04/13 01:20:43;;;;;;;14.10;8.90;;;14.40;88.50;;;;;;5438673;26;19995;-84
2024/04/13 01:23:11;;;;;;;12.15;8.45;;;14.30;88.60;;;;;;5410576;26;20391;-83
2024/04/13 01:25:38;;;;;;;11.80;8.38;;;14.30;88.80;;;;;;5387837;26;20361;-82
2024/04/13 01:28:06;;;;;;;11.98;8.20;;;14.30;88.90;;;;;;5449070;26;20096;-84
2024/04/13 01:30:34;;;;;;;13.13;8.23;;;14.30;89.00;;;;;;5434405;26;20597;-84
2024/04/13 01:33:00;;;;;;;11.13;7.78;;;14.30;89.00;;;;;;5453787;26;20766;-84
2024/04/13 01:35:25;;;;;;;11.55;7.72;;;14.30;89.10;;;;;;5433097;26;19999;-81
2024/04/13 01:37:51;;;;;;;11.73;8.15;;;14.30;89.20;;;;;;5395839;26;20009;-84
2024/04/13 01:40:17;;;;;;;10.68;8.00;;;14.30;89.20;;;;;;5434949;26;20030;-83
2024/04/13 01:42:42;;;;;;;10.95;8.25;;;14.30;89.20;;;;;;5434460;26;20011;-84
2024/04/13 01:45:09;;;;;;;11.57;8.10;;;14.40;89.20;;;;;;5429948;26;20416;-83
2024/04/13 01:47:35;;;;;;;13.90;9.35;;;14.30;89.20;;;;;;5434449;26;20014;-84
2024/04/13 01:50:01;;;;;;;12.48;8.82;;;14.30;89.20;;;;;;5429753;26;20056;-84
2024/04/13 01:52:27;;;;;;;12.32;8.30;;;14.30;89.10;;;;;;5424776;26;19998;-84
2024/04/13 01:54:54;;;;;;;12.00;7.90;;;14.20;89.00;;;;;;5432876;26;20006;-83
2024/04/13 01:57:20;;;;;;;12.43;8.90;;;14.20;89.00;;;;;;5435449;26;20336;-84
2024/04/13 01:59:45;;;;;;;12.75;9.35;;;14.20;89.10;;;;;;5409700;26;20031;-84
2024/04/13 02:02:11;;;;;;;15.40;9.32;;;14.20;89.20;;;;;;5387420;26;20532;-83
2024/04/13 02:04:37;;;;;;;15.07;9.60;;;14.20;89.30;;;;;;5431893;26;20005;-83
2024/04/13 02:07:04;;;;;;;14.35;9.10;;;14.10;89.40;;;;;;5427299;26;20003;-84
2024/04/13 02:09:30;;;;;;;14.90;9.60;;;14.10;89.40;;;;;;5427331;26;19998;-83
2024/04/13 02:11:56;;;;;;;14.85;9.38;;;14.10;89.40;;;;;;5433291;26;20349;-84
2024/04/13 02:14:22;;;;;;;15.57;10.45;;;14.10;89.40;;;;;;5405769;26;20101;-84
2024/04/13 02:16:48;;;;;;;14.02;9.60;;;14.10;89.40;;;;;;5432061;26;20079;-83
2024/04/13 02:19:15;;;;;;;15.18;10.40;;;14.10;89.50;;;;;;5421298;26;20223;-82
2024/04/13 02:21:41;;;;;;;13.07;9.02;;;14.10;89.50;;;;;;5432794;26;20006;-83
2024/04/13 02:24:07;;;;;;;14.32;10.15;;;14.10;89.60;;;;;;5432910;26;20010;-81
2024/04/13 02:26:32;;;;;;;15.38;9.85;;;14.10;89.70;;;;;;5431135;26;20007;-83
2024/04/13 02:28:59;;;;;;;16.42;9.90;;;14.10;89.80;;;;;;5432850;26;20320;-84
2024/04/13 02:31:25;;;;;;;14.88;9.68;;;14.00;89.70;;;;;;5433992;26;20610;-83
2024/04/13 02:33:51;;;;;;;13.77;10.55;;;14.00;89.80;;;;;;5430131;26;20013;-84
2024/04/13 02:36:16;;;;;;;16.55;10.73;;;14.00;89.80;;;;;;5428360;26;19999;-82
2024/04/13 02:38:42;;;;;;;18.90;11.25;;;14.00;89.80;;;;;;5405810;26;19990;-83
2024/04/13 02:41:08;;;;;;;14.63;11.02;;;14.00;89.90;;;;;;5407561;26;20462;-83
2024/04/13 02:43:35;;;;;;;15.75;10.77;;;14.00;90.00;;;;;;5448216;26;20527;-84
2024/04/13 02:46:11;;;;;;;16.02;11.95;;;13.90;90.10;;;;;;5412515;26;20005;-84
2024/04/13 02:48:43;;;;;;;17.65;12.15;;;14.00;90.30;;;;;;5435570;26;20015;-85
2024/04/13 02:51:10;;;;;;;17.17;11.70;;;14.00;90.60;;;;;;5429796;26;20056;-84
2024/04/13 02:53:37;;;;;;;16.27;11.88;;;14.00;90.50;;;;;;5433636;26;20639;-83
2024/04/13 02:56:06;;;;;;;18.10;12.27;;;14.00;90.50;;;;;;5432753;26;20473;-83
2024/04/13 02:58:32;;;;;;;16.02;10.90;;;14.00;90.60;;;;;;5394969;26;20779;-82
2024/04/13 03:00:59;;;;;;;16.65;11.65;;;14.00;90.70;;;;;;5424502;26;20002;-82
2024/04/13 03:03:26;;;;;;;19.35;12.45;;;14.00;90.70;;;;;;5431294;26;19995;-84
2024/04/13 03:05:59;;;;;;;14.07;11.23;;;13.90;90.80;;;;;;5400053;26;20010;-82
2024/04/13 03:08:24;;;;;;;15.85;11.68;;;13.90;90.80;;;;;;5429124;26;19999;-82
2024/04/13 03:10:57;;;;;;;16.75;12.35;;;13.90;90.90;;;;;;5432325;26;20009;-83
2024/04/13 03:13:23;;;;;;;16.55;12.18;;;13.90;90.90;;;;;;5437558;26;20017;-83
2024/04/13 03:16:03;;;;;;;17.40;12.68;;;13.90;90.90;;;;;;5434253;26;20030;-82
2024/04/13 03:18:30;;;;;;;18.08;12.13;;;13.90;90.90;;;;;;5427866;26;19998;-85
2024/04/13 03:20:57;;;;;;;15.45;11.57;;;13.80;90.90;;;;;;5434345;26;19995;-84
2024/04/13 03:23:23;;;;;;;16.23;11.35;;;13.80;90.90;;;;;;5436769;26;19995;-85
2024/04/13 03:25:49;;;;;;;20.20;11.57;;;13.80;91.00;;;;;;5434847;26;19999;-83
2024/04/13 03:28:14;;;;;;;19.50;12.65;;;13.70;91.00;;;;;;5437451;26;20031;-84
2024/04/13 03:30:40;;;;;;;17.58;12.65;;;13.70;91.00;;;;;;5419213;26;20067;-85
2024/04/13 03:33:05;;;;;;;19.33;12.10;;;13.70;91.10;;;;;;5405353;26;20067;-83
2024/04/13 03:35:38;;;;;;;18.05;11.82;;;13.70;91.10;;;;;;5433722;26;19998;-84
2024/04/13 03:38:04;;;;;;;16.05;11.93;;;13.70;91.20;;;;;;5399392;26;20046;-84
2024/04/13 03:40:30;;;;;;;15.88;12.13;;;13.60;91.20;;;;;;5435924;26;20012;-83
2024/04/13 03:42:55;;;;;;;15.88;12.70;;;13.60;91.30;;;;;;5435920;26;19995;-83
2024/04/13 03:45:21;;;;;;;17.73;12.18;;;13.60;91.40;;;;;;5434644;26;19999;-84
2024/04/13 03:47:47;;;;;;;17.55;12.57;;;13.60;91.40;;;;;;5434590;26;19994;-83
2024/04/13 03:50:13;;;;;;;18.20;13.52;;;13.60;91.40;;;;;;5431836;26;19991;-84
2024/04/13 03:52:41;;;;;;;17.63;13.18;;;13.70;91.40;;;;;;5439261;26;20407;-84
2024/04/13 03:55:06;;;;;;;20.70;14.00;;;13.70;91.50;;;;;;5405806;26;20779;-84
2024/04/13 03:57:32;;;;;;;17.80;14.85;;;13.70;91.70;;;;;;5421865;26;20006;-84
2024/04/13 03:59:58;;;;;;;21.88;13.82;;;13.70;91.70;;;;;;5427004;26;20342;-83
2024/04/13 04:02:24;;;;;;;20.48;14.82;;;13.70;91.80;;;;;;5406726;26;20002;-83
2024/04/13 04:04:50;;;;;;;21.52;15.25;;;13.70;91.90;;;;;;5428952;26;20014;-84
2024/04/13 04:07:15;;;;;;;21.58;14.38;;;13.70;91.90;;;;;;5426915;26;21004;-83
2024/04/13 04:09:41;;;;;;;19.17;14.73;;;13.60;92.00;;;;;;5408058;26;20009;-84
2024/04/13 04:12:07;;;;;;;21.95;14.23;;;13.60;92.00;;;;;;5428447;26;20068;-84
2024/04/13 04:14:33;;;;;;;20.45;15.05;;;13.60;92.10;;;;;;5428402;26;20007;-85
2024/04/13 04:16:59;;;;;;;22.08;15.25;;;13.60;92.20;;;;;;5424170;26;19995;-83
2024/04/13 04:19:24;;;;;;;21.38;15.50;;;13.70;92.30;;;;;;5394546;26;20003;-84
2024/04/13 04:21:50;;;;;;;22.55;16.17;;;13.70;92.40;;;;;;5436367;26;20005;-84
2024/04/13 04:24:16;;;;;;;21.30;16.10;;;13.70;92.40;;;;;;5432615;26;20034;-84
2024/04/13 04:26:41;;;;;;;20.80;15.82;;;13.70;92.60;;;;;;5397090;26;20021;-84
2024/04/13 04:29:07;;;;;;;20.27;15.52;;;13.70;92.60;;;;;;5406736;26;20045;-84
2024/04/13 04:31:33;;;;;;;20.13;15.88;;;13.70;92.70;;;;;;5433969;26;20006;-84
2024/04/13 04:34:00;;;;;;;21.52;14.85;;;13.70;92.70;;;;;;5425964;26;19998;-84
2024/04/13 04:36:25;;;;;;;20.55;15.60;;;13.70;92.70;;;;;;5408510;26;20013;-84
2024/04/13 04:38:51;;;;;;;20.40;15.98;;;13.60;92.80;;;;;;5431259;26;19999;-83
2024/04/13 04:41:16;;;;;;;20.45;15.60;;;13.60;92.80;;;;;;5421733;26;20171;-84
2024/04/13 04:43:42;;;;;;;20.20;15.25;;;13.60;92.90;;;;;;5435040;26;20010;-84
2024/04/13 04:46:09;;;;;;;19.60;15.95;;;13.60;92.90;;;;;;5433645;26;19998;-83
2024/04/13 04:48:35;;;;;;;25.80;16.58;;;13.60;93.00;;;;;;5427740;26;20292;-82
2024/04/13 04:51:02;;;;;;;22.73;16.75;;;13.60;93.00;;;;;;5408286;26;20339;-83
2024/04/13 04:53:28;;;;;;;20.88;15.60;;;13.60;93.10;;;;;;5458215;26;20911;-84
2024/04/13 04:55:54;;;;;;;22.20;15.80;;;13.60;93.10;;;;;;5437737;26;20017;-84
2024/04/13 04:58:20;;;;;;;21.30;15.90;;;13.50;93.20;;;;;;5435754;26;20079;-84
2024/04/13 05:00:46;;;;;;;20.98;14.77;;;13.60;93.30;;;;;;5431048;26;20007;-83
2024/04/13 05:03:11;;;;;;;21.88;16.10;;;13.50;93.30;;;;;;5428159;26;20025;-84
2024/04/13 05:05:37;;;;;;;20.45;15.25;;;13.60;93.30;;;;;;5433427;26;20004;-82
2024/04/13 05:08:03;;;;;;;19.83;15.05;;;13.60;93.30;;;;;;5429585;26;20048;-84
2024/04/13 05:10:28;;;;;;;18.67;15.00;;;13.60;93.30;;;;;;5437077;26;20002;-83
2024/04/13 05:12:55;;;;;;;21.42;15.32;;;13.60;93.40;;;;;;5435226;26;20104;-83
2024/04/13 05:15:21;;;;;;;20.10;15.95;;;13.60;93.30;;;;;;5410027;26;20006;-84
2024/04/13 05:17:47;;;;;;;24.83;16.38;;;13.60;93.30;;;;;;5433686;26;20014;-84
2024/04/13 05:20:12;;;;;;;21.75;15.85;;;13.70;93.30;;;;;;5420482;26;20029;-84
2024/04/13 05:22:39;;;;;;;20.38;14.73;;;13.70;93.40;;;;;;5432735;26;20011;-84
2024/04/13 05:25:06;;;;;;;19.95;15.65;;;13.70;93.30;;;;;;5424300;26;20014;-84
2024/04/13 05:27:31;;;;;;;19.88;14.90;;;13.80;93.30;;;;;;5430189;26;20077;-83
2024/04/13 05:30:02;;;;;;;19.08;15.13;;;13.80;93.30;;;;;;5433874;26;20003;-82
2024/04/13 05:32:28;;;;;;;20.83;15.65;;;13.90;93.10;;;;;;5435532;26;20013;-84
2024/04/13 05:34:54;;;;;;;20.20;13.57;;;14.00;93.10;;;;;;5417416;26;20061;-83
2024/04/13 05:37:20;;;;;;;18.83;13.93;;;14.10;93.10;;;;;;5432452;26;20006;-84
2024/04/13 05:39:46;;;;;;;18.55;14.27;;;14.10;92.90;;;;;;5432794;26;20815;-84
2024/04/13 05:42:11;;;;;;;20.50;13.85;;;14.10;92.70;;;;;;5391414;26;19995;-84
2024/04/13 05:44:37;;;;;;;20.92;15.23;;;14.20;92.60;;;;;;5433742;26;20007;-81
2024/04/13 05:47:03;;;;;;;20.92;14.38;;;14.30;92.50;;;;;;5430700;26;20083;-84
2024/04/13 05:49:29;;;;;;;18.02;13.43;;;14.30;92.30;;;;;;5430957;26;20373;-82
2024/04/13 05:51:55;;;;;;;18.00;13.80;;;14.30;92.20;;;;;;5427997;26;20014;-81
2024/04/13 05:54:21;;;;;;;17.88;13.10;;;14.50;92.20;;;;;;5428755;26;20350;-81
2024/04/13 05:56:47;;;;;;;17.08;13.10;;;14.50;91.90;;;;;;5415010;26;20010;-82
2024/04/13 05:59:12;;;;;;;17.80;13.70;;;14.60;91.70;;;;;;5440360;26;20090;-82
2024/04/13 06:01:38;;;;;;;21.15;14.07;;;14.60;91.60;;;;;;5422825;26;20007;-82
2024/04/13 06:04:04;;;;;;;17.13;12.85;;;14.60;91.40;;;;;;5432033;26;20384;-82
2024/04/13 06:06:30;;;;;;;16.63;12.20;;;14.70;91.40;;;;;;5394572;26;20014;-81
2024/04/13 06:08:55;;;;;;;17.17;12.82;;;14.70;91.10;;;;;;5434299;26;20028;-82
2024/04/13 06:11:21;;;;;;;17.23;12.50;;;14.80;90.90;;;;;;5430917;26;20013;-82
2024/04/13 06:13:46;;;;;;;16.25;12.45;;;14.80;90.80;;;;;;5448230;26;20426;-82
2024/04/13 06:16:12;;;;;;;19.23;12.45;;;14.90;90.70;;;;;;5422286;26;20043;-82
2024/04/13 06:18:38;;;;;;;18.20;13.25;;;15.00;90.60;;;;;;5428995;26;20339;-81
2024/04/13 06:21:04;;;;;;;16.63;12.30;;;15.00;90.40;;;;;;5413008;26;20010;-82
2024/04/13 06:23:29;;;;;;;20.08;12.57;;;15.10;90.30;;;;;;5432766;26;19994;-82
2024/04/13 06:25:56;;;;;;;15.77;12.45;;;15.10;90.10;;;;;;5416671;26;19991;-81
2024/04/13 06:28:23;;;;;;;15.10;10.52;;;15.10;89.90;;;;;;5431648;26;20019;-81
2024/04/13 06:30:49;;;;;;;16.17;11.77;;;15.30;89.90;;;;;;5432947;26;19999;-81
2024/04/13 06:33:16;;;;;;;17.83;10.93;;;15.30;89.50;;;;;;5426583;26;19995;-80
2024/04/13 06:35:42;;;;;;;13.85;10.07;;;15.40;89.30;;;;;;5435772;26;20014;-81
2024/04/13 06:38:08;;;;;;;14.80;11.10;;;15.50;89.20;;;;;;5422888;26;20099;-81
2024/04/13 06:40:35;;;;;;;15.27;10.85;;;15.50;88.90;;;;;;5428143;26;19995;-81
2024/04/13 06:43:02;;;;;;;17.80;10.93;;;15.60;88.70;;;;;;5414594;26;20356;-80
2024/04/13 06:45:27;;;;;;;15.95;11.68;;;15.60;88.40;;;;;;5431854;26;20083;-80
2024/04/13 06:47:53;;;;;;;17.13;10.77;;;15.60;88.30;;;;;;5436620;26;20007;-81
2024/04/13 06:50:18;;;;;;;15.98;10.50;;;15.60;88.40;;;;;;5437535;26;20006;-83
2024/04/13 06:52:44;;;;;;;16.45;11.68;;;15.70;88.10;;;;;;5417570;26;20013;-81
2024/04/13 06:55:10;;;;;;;16.45;11.30;;;15.80;88.00;;;;;;5417543;26;20912;-81
2024/04/13 06:57:36;;;;;;;18.83;11.57;;;15.90;87.70;;;;;;5408530;26;20601;-81
2024/04/13 07:00:02;;;;;;;15.50;10.02;;;16.00;87.70;;;;;;5416308;26;20041;-81
2024/04/13 07:02:28;;;;;;;14.95;10.35;;;16.10;87.40;;;;;;5427085;26;19995;-81
2024/04/13 07:04:54;;;;;;;17.55;10.68;;;16.20;87.30;;;;;;5428754;26;20011;-81
2024/04/13 07:07:19;;;;;;;15.68;11.35;;;16.30;86.80;;;;;;5428176;26;19999;-81
2024/04/13 07:09:45;;;;;;;13.32;9.68;;;16.40;86.60;;;;;;5416500;26;20038;-82
2024/04/13 07:12:10;;;;;;;13.75;10.60;;;16.60;86.10;;;;;;5431679;26;19994;-82
2024/04/13 07:14:36;;;;;;;14.93;10.15;;;16.60;85.50;;;;;;5440199;26;20005;-84
2024/04/13 07:17:02;;;;;;;14.93;10.25;;;16.80;85.30;;;;;;5424558;26;20355;-81
2024/04/13 07:19:27;;;;;;;15.00;9.73;;;17.00;85.10;;;;;;5405989;26;20007;-83
2024/04/13 07:21:53;;;;;;;13.45;9.27;;;17.10;84.10;;;;;;5447263;26;20006;-83
2024/04/13 07:24:19;;;;;;;18.60;10.95;;;17.20;84.20;;;;;;5412892;26;19999;-85
2024/04/13 07:26:44;;;;;;;13.07;9.20;;;17.40;83.60;;;;;;5443398;26;19991;-83
2024/04/13 07:29:10;;;;;;;14.77;9.55;;;17.60;83.00;;;;;;5408507;26;20224;-81
2024/04/13 07:31:36;;;;;;;14.65;9.57;;;17.60;82.40;;;;;;5416489;26;20014;-81
2024/04/13 07:34:01;;;;;;;14.63;9.40;;;17.80;81.80;;;;;;5437661;26;20439;-83
2024/04/13 07:36:27;;;;;;;14.32;9.50;;;18.00;81.90;;;;;;5434103;26;20013;-81
2024/04/13 07:38:52;;;;;;;14.93;8.90;;;18.10;81.80;;;;;;5438123;26;20013;-82
2024/04/13 07:41:18;;;;;;;14.00;9.75;;;18.20;81.30;;;;;;5436501;26;20508;-82
2024/04/13 07:43:44;;;;;;;13.70;8.55;;;18.30;80.30;;;;;;5429665;26;20006;-81
2024/04/13 07:46:09;;;;;;;13.07;9.07;;;18.50;80.50;;;;;;5417187;26;19995;-84
2024/04/13 07:48:35;;;;;;;12.25;9.02;;;18.60;79.50;;;;;;5426579;26;20685;-81
2024/04/13 07:51:01;;;;;;;11.68;8.48;;;18.70;79.30;;;;;;5430742;26;20118;-81
2024/04/13 07:53:30;;;;;;;14.30;8.70;;;18.90;79.20;;;;;;5426557;26;20470;-82
2024/04/13 07:55:59;;;;;;;11.98;8.75;;;19.00;78.70;;;;;;5441599;26;20004;-80
2024/04/13 07:58:24;;;;;;;13.20;8.25;;;19.10;78.40;;;;;;5429933;26;20003;-80
2024/04/13 08:00:50;;;;;;;12.73;9.32;;;19.20;77.70;;;;;;5427668;26;20035;-82
2024/04/13 08:03:16;;;;;;;13.68;7.60;;;19.20;77.00;;;;;;5435850;26;20347;-81
2024/04/13 08:05:42;;;;;;;12.07;8.52;;;19.20;76.40;;;;;;5433826;26;20025;-82
2024/04/13 08:08:07;;;;;;;11.23;7.70;;;19.50;76.70;;;;;;5407187;26;20056;-80
2024/04/13 08:10:41;;;;;;;10.63;8.10;;;19.50;75.70;;;;;;5421224;26;20133;-85
2024/04/13 08:13:07;;;;;;;14.23;8.55;;;19.60;76.10;;;;;;5414339;26;19999;-81
2024/04/13 08:15:36;;;;;;;10.23;7.70;;;19.80;76.30;;;;;;5428676;26;20071;-80
2024/04/13 08:18:03;;;;;;;12.52;7.70;;;19.90;74.70;;;;;;5427827;26;19991;-81
2024/04/13 08:20:29;;;;;;;13.10;7.93;;;20.00;74.50;;;;;;5430981;26;19991;-85
2024/04/13 08:22:54;;;;;;;14.27;7.95;;;20.10;74.60;;;;;;5403611;26;20003;-81
2024/04/13 08:25:20;;;;;;;11.75;8.13;;;20.20;74.10;;;;;;5428697;26;20077;-81
2024/04/13 08:27:46;;;;;;;13.88;8.57;;;20.10;74.40;;;;;;5407866;26;19999;-84
2024/04/13 08:30:11;;;;;;;13.57;8.68;;;20.30;74.30;;;;;;5432918;26;20321;-81
2024/04/13 08:32:38;;;;;;;12.43;7.85;;;20.30;74.10;;;;;;5437977;26;20006;-81
2024/04/13 08:35:05;;;;;;;11.27;8.57;;;20.40;73.60;;;;;;5433785;26;19998;-85
2024/04/13 08:37:32;;;;;;;12.43;8.40;;;20.40;73.10;;;;;;5437661;26;20064;-81
2024/04/13 08:39:58;;;;;;;12.20;8.05;;;20.40;73.30;;;;;;5432258;26;20038;-81
2024/04/13 08:42:34;;;;;;;12.88;7.88;;;20.60;73.00;;;;;;5433780;26;20014;-83
2024/04/13 08:45:00;;;;;;;13.32;8.43;;;20.80;72.20;;;;;;5431057;26;20397;-82
2024/04/13 08:47:31;;;;;;;10.82;7.45;;;20.90;72.20;;;;;;5433848;26;19995;-81
2024/04/13 08:49:59;;;;;;;11.60;7.82;;;21.00;72.00;;;;;;5387440;26;20010;-82
2024/04/13 08:52:25;;;;;;;11.90;7.28;;;21.10;71.90;;;;;;5428554;26;19995;-85
2024/04/13 08:54:51;;;;;;;14.88;7.90;;;21.10;71.10;;;;;;5438636;26;19993;-83
2024/04/13 08:57:25;;;;;;;11.60;8.05;;;21.30;71.30;;;;;;5436894;26;20009;-85
2024/04/13 08:59:55;;;;;;;13.97;7.63;;;21.50;70.30;;;;;;5434810;26;20009;-84
2024/04/13 09:02:22;;;;;;;12.55;8.15;;;21.40;70.70;;;;;;5416628;26;20432;-81
2024/04/13 09:04:52;;;;;;;11.98;7.95;;;21.50;71.10;;;;;;5404956;26;20325;-82
2024/04/13 09:07:21;;;;;;;10.43;8.10;;;21.60;70.90;;;;;;5398360;26;19995;-81
2024/04/13 09:09:52;;;;;;;10.95;6.90;;;21.50;70.50;;;;;;5431487;26;19999;-83
2024/04/13 09:12:19;;;;;;;12.85;7.97;;;21.60;71.40;;;;;;5435313;26;20007;-81
2024/04/13 09:14:46;;;;;;;11.70;7.03;;;21.60;69.90;;;;;;5406992;26;19999;-81
2024/04/13 09:17:12;;;;;;;13.65;7.53;;;21.70;70.20;;;;;;5431977;26;20002;-81
2024/04/13 09:19:38;;;;;;;14.05;8.02;;;21.90;69.90;;;;;;5432249;26;19999;-81
2024/04/13 09:22:04;;;;;;;11.82;7.68;;;21.90;69.20;;;;;;5433844;26;20415;-81
2024/04/13 09:24:43;;;;;;;12.38;7.55;;;22.00;69.80;;;;;;5432955;26;20003;-82
2024/04/13 09:27:16;;;;;;;11.70;8.35;;;22.00;69.20;;;;;;5434038;26;20003;-81
2024/04/13 09:29:43;;;;;;;10.13;7.13;;;22.00;70.00;;;;;;5400743;26;20622;-81
2024/04/13 09:32:08;;;;;;;11.07;7.63;;;21.90;70.10;;;;;;5400897;26;20366;-81
2024/04/13 09:34:37;;;;;;;11.13;6.75;;;22.10;70.00;;;;;;5412605;26;20012;-81
2024/04/13 09:37:07;;;;;;;12.75;8.38;;;22.50;69.60;;;;;;5419024;26;20439;-81
2024/04/13 09:39:33;;;;;;;11.23;7.45;;;22.40;68.70;;;;;;5436045;26;20108;-81
2024/04/13 09:42:07;;;;;;;10.63;7.30;;;22.60;68.40;;;;;;5402970;26;20003;-81
2024/04/13 09:44:33;;;;;;;10.55;6.68;;;22.70;68.10;;;;;;5427554;26;20009;-81
2024/04/13 09:46:58;;;;;;;10.15;7.22;;;23.00;68.00;;;;;;5401158;26;20418;-81
2024/04/13 09:49:24;;;;;;;12.23;7.35;;;23.00;67.60;;;;;;5426425;26;20419;-81
2024/04/13 09:51:50;;;;;;;10.90;6.78;;;23.10;67.70;;;;;;5421266;26;20003;-81
2024/04/13 09:54:16;;;;;;;12.95;7.00;;;23.60;67.10;;;;;;5424501;26;20349;-81
2024/04/13 09:56:48;;;;;;;12.07;6.38;;;23.90;66.00;;;;;;5422873;26;19995;-82
2024/04/13 09:59:13;;;;;;;11.00;6.30;;;24.10;65.70;;;;;;5413908;26;20003;-81
2024/04/13 10:01:39;;;;;;;9.75;6.68;;;24.00;64.30;;;;;;5406195;26;20007;-81
2024/04/13 10:04:05;;;;;;;11.40;6.70;;;24.00;64.00;;;;;;5418323;26;20397;-80
2024/04/13 10:06:33;;;;;;;11.40;5.80;;;24.00;64.20;;;;;;5429907;26;20126;-80
2024/04/13 10:09:03;;;;;;;12.73;6.38;;;24.30;64.20;;;;;;5430347;26;20006;-81
2024/04/13 10:11:31;;;;;;;9.65;6.15;;;24.10;64.50;;;;;;5430023;26;20384;-80
2024/04/13 10:13:58;;;;;;;10.50;6.40;;;24.00;64.80;;;;;;5404914;26;20019;-82
2024/04/13 10:16:25;;;;;;;9.80;6.00;;;24.20;64.30;;;;;;5420350;26;20573;-80
2024/04/13 10:18:51;;;;;;;9.05;5.57;;;24.10;63.70;;;;;;5430217;26;20006;-81
2024/04/13 10:21:21;;;;;;;8.45;5.57;;;24.10;64.30;;;;;;5428446;26;20032;-81
2024/04/13 10:23:46;;;;;;;13.00;5.25;;;24.20;63.00;;;;;;5411716;26;20433;-81
2024/04/13 10:26:12;;;;;;;11.55;5.10;;;24.20;63.70;;;;;;5434480;26;19998;-81
2024/04/13 10:28:40;;;;;;;9.50;5.38;;;24.20;62.90;;;;;;5430893;26;19995;-81
2024/04/13 10:31:19;;;;;;;11.02;5.43;;;24.30;62.60;;;;;;5434630;26;20281;-81
2024/04/13 10:33:55;;;;;;;7.88;5.07;;;24.30;63.10;;;;;;5425352;26;20013;-80
2024/04/13 10:36:37;;;;;;;10.68;5.50;;;24.40;62.30;;;;;;5391253;26;19999;-80
2024/04/13 10:39:03;;;;;;;8.95;5.05;;;24.50;61.20;;;;;;5407647;26;20099;-80
2024/04/13 10:41:34;;;;;;;11.40;5.38;;;24.40;62.40;;;;;;5427069;26;20034;-81
2024/04/13 10:44:01;;;;;;;9.90;5.15;;;24.50;62.40;;;;;;5400495;26;20070;-81
2024/04/13 10:46:27;;;;;;;8.77;5.20;;;24.60;62.60;;;;;;5424024;26;20055;-80
2024/04/13 10:48:53;;;;;;;9.75;5.22;;;24.70;61.40;;;;;;5434332;26;20010;-80
2024/04/13 10:51:21;;;;;;;8.82;4.93;;;24.60;61.00;;;;;;5427287;26;20007;-81
2024/04/13 10:53:47;;;;;;;9.30;4.82;;;24.60;61.50;;;;;;5406368;26;20026;-81
2024/04/13 10:56:13;;;;;;;9.30;4.95;;;24.60;61.40;;;;;;5421075;26;20398;-79
2024/04/13 10:58:39;;;;;;;9.98;4.80;;;24.70;61.20;;;;;;5438164;26;19998;-81
2024/04/13 11:01:06;;;;;;;11.73;5.25;;;24.80;61.30;;;;;;5426286;26;20002;-81
2024/04/13 11:03:31;;;;;;;9.55;4.38;;;25.00;61.00;;;;;;5434933;26;20090;-81
2024/04/13 11:05:59;;;;;;;9.80;4.47;;;25.10;60.90;;;;;;5432779;26;20017;-83
2024/04/13 11:08:24;;;;;;;8.10;4.30;;;25.30;60.90;;;;;;5392569;26;19999;-80
2024/04/13 11:10:57;;;;;;;10.38;4.70;;;25.50;60.70;;;;;;5436506;26;20452;-80
2024/04/13 11:13:24;;;;;;;10.68;4.43;;;25.50;59.70;;;;;;5446145;26;19998;-81
2024/04/13 11:15:50;;;;;;;9.30;4.43;;;25.40;60.40;;;;;;5422261;26;20461;-80
2024/04/13 11:18:17;;;;;;;9.02;4.80;;;25.60;59.70;;;;;;5438795;26;20432;-82
2024/04/13 11:20:48;;;;;;;7.43;4.40;;;25.60;59.70;;;;;;5423718;26;19999;-82
2024/04/13 11:23:15;;;;;;;8.68;4.10;;;25.70;58.80;;;;;;5445159;26;20083;-80
2024/04/13 11:25:41;;;;;;;9.02;4.65;;;25.70;58.80;;;;;;5419802;26;20013;-79
2024/04/13 11:28:07;;;;;;;9.57;4.45;;;25.70;58.30;;;;;;5418401;26;19991;-79
2024/04/13 11:30:33;;;;;;;8.65;4.20;;;25.80;58.00;;;;;;5437331;26;20003;-82
2024/04/13 11:32:59;;;;;;;8.13;4.15;;;25.50;58.20;;;;;;5431555;26;20041;-79
2024/04/13 11:35:26;;;;;;;8.18;4.15;;;25.50;57.80;;;;;;5406414;26;20010;-80
2024/04/13 11:37:57;;;;;;;7.70;3.65;;;25.50;58.60;;;;;;5436157;26;20009;-80
2024/04/13 11:40:23;;;;;;;9.20;4.05;;;25.70;58.70;;;;;;5402059;26;20457;-81
2024/04/13 11:42:49;;;;;;;7.40;3.90;;;25.60;57.30;;;;;;5432045;26;20022;-82
2024/04/13 11:45:15;;;;;;;9.25;4.28;;;25.70;58.40;;;;;;5415348;26;20027;-80
2024/04/13 11:47:41;;;;;;;10.80;4.18;;;25.60;57.20;;;;;;5414605;26;20003;-80
2024/04/13 11:50:07;;;;;;;6.90;3.58;;;25.60;57.00;;;;;;5414826;26;20408;-81
2024/04/13 11:52:33;;;;;;;6.47;3.63;;;25.60;57.10;;;;;;5410965;26;20425;-80
2024/04/13 11:54:59;;;;;;;9.05;3.75;;;25.70;56.80;;;;;;5424042;26;20003;-82
2024/04/13 11:57:25;;;;;;;9.10;3.40;;;25.60;56.30;;;;;;5422303;26;20006;-83
2024/04/13 11:59:51;;;;;;;8.25;3.20;;;25.60;56.50;;;;;;5428536;26;20003;-82
2024/04/13 12:02:17;;;;;;;7.55;3.10;;;25.80;56.60;;;;;;5425852;26;20432;-78
2024/04/13 12:04:42;;;;;;;8.70;3.67;;;26.00;56.30;;;;;;5412342;26;20007;-80
2024/04/13 12:07:12;;;;;;;8.57;3.67;;;25.80;56.60;;;;;;5431985;26;19999;-79
2024/04/13 12:09:41;;;;;;;7.75;3.10;;;25.80;56.70;;;;;;5419524;26;20104;-81
2024/04/13 12:12:07;;;;;;;6.35;3.00;;;25.90;56.00;;;;;;5435501;26;20009;-79
2024/04/13 12:14:35;;;;;;;6.28;2.85;;;25.80;54.10;;;;;;5429796;26;20003;-78
2024/04/13 12:17:02;;;;;;;6.72;3.30;;;25.80;54.40;;;;;;5430457;26;20221;-79
2024/04/13 12:19:27;;;;;;;8.60;3.42;;;25.90;54.50;;;;;;5426845;26;19999;-80
2024/04/13 12:21:53;;;;;;;6.50;3.20;;;26.10;54.40;;;;;;5418700;26;20070;-80
2024/04/13 12:24:19;;;;;;;7.72;3.30;;;26.10;54.50;;;;;;5443108;26;20510;-83
2024/04/13 12:26:44;;;;;;;6.65;2.88;;;26.20;53.70;;;;;;5431628;26;19998;-79
2024/04/13 12:29:11;;;;;;;8.45;3.15;;;26.30;54.10;;;;;;5422352;26;19994;-79